Time;durP1;ratioP1;P1;durP2;ratioP2;P2;SDS_P1;SDS_P2;PMS_P1;PMS_P2;Temp;Humidity;BMP_temperature;BMP_pressure;BME280_temperature;BME280_humidity;BME280_pressure;Samples;Min_cycle;Max_cycle;Signal;HPM_P1;HPM_P2
2021/07/06 00:01:17;;;;;;;2.10;1.30;;;;;;;20.15;47.68;100238.81;3550851;40;20139;-69
2021/07/06 00:03:46;;;;;;;1.50;1.10;;;;;;;20.12;47.98;100234.53;3554652;40;20058;-69
2021/07/06 00:06:15;;;;;;;2.08;1.10;;;;;;;20.12;47.80;100240.06;3572203;40;20054;-69
2021/07/06 00:08:43;;;;;;;2.45;1.00;;;;;;;20.12;48.03;100236.44;3554709;40;20060;-69
2021/07/06 00:11:12;;;;;;;3.65;1.15;;;;;;;20.10;48.02;100235.78;3597591;39;20489;-69
2021/07/06 00:13:43;;;;;;;1.98;1.00;;;;;;;20.12;47.89;100236.44;3555368;40;20388;-69
2021/07/06 00:16:11;;;;;;;1.80;1.20;;;;;;;20.09;47.83;100223.00;3584173;40;20104;-69
2021/07/06 00:18:40;;;;;;;2.38;1.30;;;;;;;20.07;48.26;100223.22;3554505;40;20042;-69
2021/07/06 00:21:09;;;;;;;2.25;1.00;;;;;;;20.07;47.75;100225.97;3588542;40;20058;-69
2021/07/06 00:23:38;;;;;;;1.88;1.20;;;;;;;20.05;48.54;100222.56;3588987;40;20056;-69
2021/07/06 00:26:06;;;;;;;1.90;1.10;;;;;;;20.04;48.06;100220.84;3548500;40;20332;-69
2021/07/06 00:28:35;;;;;;;2.25;1.27;;;;;;;20.03;48.14;100221.91;3552269;39;20307;-69
2021/07/06 00:31:04;;;;;;;2.28;1.40;;;;;;;20.04;48.06;100229.16;3589976;40;20050;-69
2021/07/06 00:33:33;;;;;;;2.88;1.27;;;;;;;20.01;48.11;100215.69;3589571;40;20050;-69
2021/07/06 00:36:01;;;;;;;2.33;1.30;;;;;;;20.00;48.57;100215.94;3572337;40;20057;-69
2021/07/06 00:38:31;;;;;;;2.60;1.40;;;;;;;20.00;48.60;100221.47;3590613;40;20054;-69
2021/07/06 00:41:01;;;;;;;3.13;1.50;;;;;;;20.00;48.60;100219.56;3552706;40;20049;-69
2021/07/06 00:43:29;;;;;;;2.95;1.30;;;;;;;19.99;48.36;100217.84;3551747;40;20050;-69
2021/07/06 00:45:59;;;;;;;1.55;1.20;;;;;;;20.02;48.38;100222.09;3556770;39;20053;-69
2021/07/06 00:48:30;;;;;;;2.30;1.27;;;;;;;20.03;48.20;100226.59;3593355;40;20319;-68
2021/07/06 00:50:58;;;;;;;2.17;1.20;;;;;;;20.01;48.51;100231.53;3555755;40;20086;-69
2021/07/06 00:53:27;;;;;;;2.25;1.20;;;;;;;20.02;48.53;100227.66;3555470;40;20429;-69
2021/07/06 00:55:57;;;;;;;2.45;1.15;;;;;;;20.04;48.30;100231.09;3557186;40;20089;-69
2021/07/06 00:58:28;;;;;;;3.13;1.30;;;;;;;20.04;48.36;100222.75;3556190;40;20073;-69
2021/07/06 01:00:57;;;;;;;3.33;1.50;;;;;;;20.03;48.32;100208.00;3572153;40;20288;-69
2021/07/06 01:03:33;;;;;;;2.00;1.10;;;;;;;20.03;48.30;100204.38;3560461;40;20064;-69
2021/07/06 01:06:01;;;;;;;2.42;1.10;;;;;;;20.02;48.19;100205.44;3590230;40;20061;-69
2021/07/06 01:08:30;;;;;;;3.15;1.40;;;;;;;20.03;48.47;100205.25;3587150;40;20053;-69
2021/07/06 01:11:00;;;;;;;2.03;1.10;;;;;;;20.04;48.55;100204.19;3571882;39;20388;-69
2021/07/06 01:13:30;;;;;;;1.85;0.93;;;;;;;20.04;48.40;100197.75;3562568;39;20048;-69
2021/07/06 01:15:58;;;;;;;1.73;1.00;;;;;;;20.05;48.31;100188.38;3560597;39;20065;-69
2021/07/06 01:18:27;;;;;;;1.40;0.90;;;;;;;20.04;48.66;100183.88;3564203;39;20038;-69
2021/07/06 01:20:57;;;;;;;1.98;1.20;;;;;;;20.06;48.16;100173.44;3556068;40;20054;-69
2021/07/06 01:23:29;;;;;;;2.05;1.00;;;;;;;20.05;48.05;100163.38;3554367;39;20321;-69
2021/07/06 01:26:02;;;;;;;1.57;0.97;;;;;;;20.03;48.58;100162.75;3553024;40;20313;-69
2021/07/06 01:28:31;;;;;;;2.13;1.10;;;;;;;20.02;48.13;100170.22;3555886;40;20053;-69
2021/07/06 01:30:59;;;;;;;1.65;1.05;;;;;;;20.02;47.88;100169.34;3547309;40;20055;-69
2021/07/06 01:33:29;;;;;;;1.60;0.90;;;;;;;20.02;48.10;100180.47;3573852;40;20046;-69
2021/07/06 01:36:02;;;;;;;1.70;1.00;;;;;;;19.99;48.02;100170.66;3555317;40;20058;-69
2021/07/06 01:38:31;;;;;;;;;;;;;;;19.68;48.85;100175.91;3551464;40;20108;-69
2021/07/06 01:41:01;;;;;;;1.15;0.90;;;;;;;19.91;47.92;100168.94;3551829;40;19941;-70
2021/07/06 01:43:30;;;;;;;2.10;1.00;;;;;;;19.91;47.61;100155.06;3590992;40;20046;-70
2021/07/06 01:45:58;;;;;;;2.45;1.08;;;;;;;19.92;47.93;100156.72;3556233;40;20065;-69
2021/07/06 01:48:27;;;;;;;2.00;1.20;;;;;;;19.89;47.99;100157.16;3555780;40;20327;-69
2021/07/06 01:50:55;;;;;;;2.08;0.93;;;;;;;19.89;47.68;100146.06;3587291;40;20042;-69
2021/07/06 01:53:24;;;;;;;1.92;0.90;;;;;;;19.88;48.12;100149.06;3588910;40;20061;-69
2021/07/06 01:55:55;;;;;;;1.35;0.80;;;;;;;19.88;47.75;100138.81;3587297;39;20055;-69
2021/07/06 01:58:26;;;;;;;2.60;0.98;;;;;;;19.87;47.73;100133.47;3596950;39;20091;-69
2021/07/06 02:00:58;;;;;;;2.20;0.95;;;;;;;19.86;47.43;100132.59;3574994;39;20064;-69
2021/07/06 02:03:26;;;;;;;1.70;0.82;;;;;;;19.82;47.99;100125.78;3555606;40;20090;-69
2021/07/06 02:05:57;;;;;;;0.75;0.70;;;;;;;19.82;47.69;100124.91;3555183;40;20052;-69
2021/07/06 02:08:26;;;;;;;1.48;1.00;;;;;;;19.82;47.75;100133.25;3550682;39;20333;-69
2021/07/06 02:10:59;;;;;;;1.45;0.75;;;;;;;19.83;47.39;100121.09;3598731;39;20059;-69
2021/07/06 02:13:28;;;;;;;2.33;1.00;;;;;;;19.80;47.51;100115.94;3549215;40;20050;-69
2021/07/06 02:16:02;;;;;;;1.50;0.95;;;;;;;19.79;47.74;100114.22;3585440;40;20525;-69
2021/07/06 02:18:32;;;;;;;1.98;0.80;;;;;;;19.76;47.49;100103.56;3548213;40;20090;-69
2021/07/06 02:21:02;;;;;;;2.63;0.90;;;;;;;19.75;47.64;100122.13;3553688;40;20073;-69
2021/07/06 02:23:31;;;;;;;2.05;0.90;;;;;;;19.74;47.83;100120.44;3553824;40;20060;-69
2021/07/06 02:26:07;;;;;;;1.73;1.00;;;;;;;19.75;47.77;100110.19;3549090;40;20061;-69
2021/07/06 02:28:36;;;;;;;2.65;0.80;;;;;;;19.70;47.29;100104.38;3554926;40;20052;-69
2021/07/06 02:31:06;;;;;;;2.38;0.90;;;;;;;19.68;47.57;100118.47;3553840;40;20054;-69
2021/07/06 02:33:35;;;;;;;2.63;1.00;;;;;;;19.67;47.32;100097.38;3546611;40;20395;-69
2021/07/06 02:36:06;;;;;;;1.63;0.82;;;;;;;19.68;47.16;100103.78;3554010;40;20049;-69
2021/07/06 02:38:36;;;;;;;2.13;1.17;;;;;;;19.65;47.64;100112.50;3556408;40;20317;-69
2021/07/06 02:41:06;;;;;;;2.67;1.15;;;;;;;19.64;47.51;100114.41;3587701;40;20429;-69
2021/07/06 02:43:34;;;;;;;2.03;0.98;;;;;;;19.62;47.77;100107.34;3556202;40;20050;-69
2021/07/06 02:46:03;;;;;;;2.40;1.10;;;;;;;19.61;47.48;100089.84;3549930;40;20046;-69
2021/07/06 02:48:32;;;;;;;3.38;1.17;;;;;;;19.60;47.62;100084.50;3555877;40;20048;-69
2021/07/06 02:51:00;;;;;;;1.77;1.08;;;;;;;19.60;47.76;100096.47;3555225;40;20146;-69
2021/07/06 02:53:29;;;;;;;2.08;0.85;;;;;;;19.60;47.55;100104.78;3589822;40;20066;-69
2021/07/06 02:55:57;;;;;;;2.10;1.10;;;;;;;19.59;47.50;100100.34;3584962;40;20069;-69
2021/07/06 02:58:27;;;;;;;3.92;1.02;;;;;;;19.62;47.54;100093.50;3547340;40;20058;-69
2021/07/06 03:00:55;;;;;;;2.78;1.00;;;;;;;19.60;47.55;100081.75;3555928;40;20085;-69
2021/07/06 03:03:23;;;;;;;1.65;1.10;;;;;;;19.60;47.60;100077.03;3589870;40;20327;-69
2021/07/06 03:05:52;;;;;;;2.00;0.98;;;;;;;19.60;47.93;100074.28;3551999;40;20062;-69
2021/07/06 03:08:20;;;;;;;2.70;1.20;;;;;;;19.59;47.93;100083.69;3577140;40;20060;-69
2021/07/06 03:10:48;;;;;;;2.08;1.20;;;;;;;19.58;47.81;100083.88;3552622;40;20064;-69
2021/07/06 03:13:17;;;;;;;2.33;1.10;;;;;;;19.59;47.69;100078.13;3555843;40;20057;-69
2021/07/06 03:15:47;;;;;;;1.83;1.05;;;;;;;19.61;47.54;100080.69;3555473;40;20049;-69
2021/07/06 03:18:15;;;;;;;1.60;0.90;;;;;;;19.56;47.76;100065.53;3556116;40;20054;-69
2021/07/06 03:20:44;;;;;;;1.33;1.02;;;;;;;19.58;47.91;100051.47;3552129;39;20061;-69
2021/07/06 03:23:13;;;;;;;2.17;1.08;;;;;;;19.58;47.67;100054.22;3582367;40;20046;-69
2021/07/06 03:25:43;;;;;;;2.33;1.00;;;;;;;19.56;47.92;100061.91;3589409;40;20342;-69
2021/07/06 03:28:13;;;;;;;2.33;0.93;;;;;;;19.58;47.37;100051.47;3555175;40;20054;-69
2021/07/06 03:30:41;;;;;;;1.65;0.93;;;;;;;19.56;47.92;100039.72;3554882;40;20054;-69
2021/07/06 03:33:11;;;;;;;2.03;1.00;;;;;;;19.57;47.44;100035.88;3589748;40;20049;-69
2021/07/06 03:35:46;;;;;;;2.03;0.98;;;;;;;19.55;47.84;100044.41;3554778;40;20054;-69
2021/07/06 03:38:14;;;;;;;2.15;0.93;;;;;;;19.54;47.49;100039.06;3555913;40;20058;-69
2021/07/06 03:40:44;;;;;;;2.60;1.00;;;;;;;19.54;47.67;100047.38;3546027;40;20399;-69
2021/07/06 03:43:12;;;;;;;1.77;1.00;;;;;;;19.52;47.50;100035.63;3555305;40;20046;-69
2021/07/06 03:45:41;;;;;;;2.47;0.93;;;;;;;19.53;47.70;100037.34;3555276;40;20394;-69
2021/07/06 03:48:11;;;;;;;3.85;0.98;;;;;;;19.54;47.76;100050.16;3582739;40;20126;-69
2021/07/06 03:50:39;;;;;;;1.63;0.70;;;;;;;19.50;47.72;100046.97;3550442;40;20086;-69
2021/07/06 03:53:07;;;;;;;1.90;0.90;;;;;;;19.50;47.47;100040.53;3554106;40;20698;-69
2021/07/06 03:55:36;;;;;;;1.60;0.90;;;;;;;19.49;47.23;100031.34;3556069;40;20135;-69
2021/07/06 03:58:04;;;;;;;2.55;1.00;;;;;;;19.48;47.08;100034.31;3555426;40;20054;-69
2021/07/06 04:00:32;;;;;;;1.88;1.00;;;;;;;19.49;47.20;100027.72;3552872;40;20072;-68
2021/07/06 04:03:01;;;;;;;2.47;1.00;;;;;;;19.48;47.41;100021.31;3555415;40;20104;-69
2021/07/06 04:05:31;;;;;;;1.83;0.90;;;;;;;19.49;47.23;100024.94;3557778;40;20046;-69
2021/07/06 04:08:00;;;;;;;2.97;0.90;;;;;;;19.46;47.77;100012.34;3557999;40;20046;-69
2021/07/06 04:10:28;;;;;;;1.80;0.90;;;;;;;19.45;47.69;100004.22;3593366;40;20026;-68
2021/07/06 04:12:57;;;;;;;1.33;0.90;;;;;;;19.44;47.65;99992.28;3557395;40;20050;-69
2021/07/06 04:15:25;;;;;;;1.98;0.90;;;;;;;19.45;47.35;99977.34;3589723;40;20055;-69
2021/07/06 04:17:53;;;;;;;1.17;0.90;;;;;;;19.44;47.23;99981.19;3585071;40;20355;-69
2021/07/06 04:20:21;;;;;;;1.90;0.93;;;;;;;19.45;47.44;99957.06;3551474;40;20441;-69
2021/07/06 04:22:51;;;;;;;1.90;0.90;;;;;;;19.46;47.39;99987.38;3553718;40;20410;-68
2021/07/06 04:25:20;;;;;;;2.20;0.80;;;;;;;19.46;47.47;99975.44;3557079;40;20046;-69
2021/07/06 04:27:51;;;;;;;1.60;1.10;;;;;;;19.46;47.47;99976.28;3556725;40;20114;-69
2021/07/06 04:30:20;;;;;;;1.75;0.85;;;;;;;19.48;47.97;99989.94;3558878;39;20050;-69
2021/07/06 04:32:49;;;;;;;1.30;0.98;;;;;;;19.47;47.97;99991.00;3590592;40;20390;-69
2021/07/06 04:35:18;;;;;;;1.85;0.93;;;;;;;19.47;47.76;99989.09;3559820;39;20057;-69
2021/07/06 04:37:47;;;;;;;1.17;0.80;;;;;;;19.47;48.04;99991.88;3556676;40;20062;-69
2021/07/06 04:40:18;;;;;;;2.22;1.00;;;;;;;19.50;47.74;99987.81;3557105;39;20061;-69
2021/07/06 04:42:47;;;;;;;2.72;0.90;;;;;;;19.48;47.83;99995.50;3552518;40;20066;-70
2021/07/06 04:45:15;;;;;;;2.70;0.90;;;;;;;19.47;48.01;99991.88;3555999;40;20058;-70
2021/07/06 04:47:44;;;;;;;1.17;0.75;;;;;;;19.48;48.16;100023.22;3557534;40;20049;-69
2021/07/06 04:50:15;;;;;;;1.95;1.10;;;;;;;19.49;47.88;100006.38;3591209;39;20056;-69
2021/07/06 04:52:46;;;;;;;1.85;1.10;;;;;;;19.47;48.16;100022.38;3589420;40;20065;-69
2021/07/06 04:55:16;;;;;;;2.15;1.30;;;;;;;19.47;48.28;100021.53;3593692;39;20433;-70
2021/07/06 04:57:46;;;;;;;1.75;1.10;;;;;;;19.50;48.16;100023.88;3552085;39;20054;-69
2021/07/06 05:00:16;;;;;;;2.22;0.98;;;;;;;19.47;48.37;100025.16;3556130;40;20086;-69
2021/07/06 05:02:46;;;;;;;1.30;0.90;;;;;;;19.49;48.33;100031.34;3590564;39;20145;-68
2021/07/06 05:05:19;;;;;;;3.35;1.25;;;;;;;19.47;47.98;100036.25;3570399;39;20116;-68
2021/07/06 05:07:48;;;;;;;2.17;1.10;;;;;;;19.48;48.09;100064.84;3597740;39;20463;-68
2021/07/06 05:10:17;;;;;;;3.30;1.08;;;;;;;19.48;48.40;100060.16;3561825;39;20069;-68
2021/07/06 05:12:47;;;;;;;4.10;1.13;;;;;;;19.49;48.39;100072.97;3555562;39;20398;-68
2021/07/06 05:15:16;;;;;;;1.92;1.00;;;;;;;19.48;48.23;100098.97;3556978;39;20386;-68
2021/07/06 05:17:45;;;;;;;2.20;1.10;;;;;;;19.49;48.53;100099.84;3570294;39;20364;-68
2021/07/06 05:20:15;;;;;;;2.40;1.50;;;;;;;19.48;48.96;100129.50;3570017;39;20298;-69
2021/07/06 05:22:43;;;;;;;2.58;1.10;;;;;;;19.48;48.88;100146.13;3558662;39;20096;-68
2021/07/06 05:25:12;;;;;;;2.13;1.00;;;;;;;19.50;48.76;100159.81;3590586;40;20075;-69
2021/07/06 05:27:41;;;;;;;1.33;0.90;;;;;;;19.50;48.55;100155.16;3593142;39;20084;-70
2021/07/06 05:30:13;;;;;;;2.60;1.02;;;;;;;19.54;49.05;100158.34;3578698;39;20111;-69
2021/07/06 05:32:42;;;;;;;2.37;0.80;;;;;;;19.50;49.19;100151.47;3562833;39;20038;-68
2021/07/06 05:35:11;;;;;;;1.80;0.95;;;;;;;19.53;48.84;100160.25;3567840;39;20050;-69
2021/07/06 05:37:40;;;;;;;2.00;1.00;;;;;;;19.53;49.13;100162.19;3556289;40;20391;-68
2021/07/06 05:40:11;;;;;;;3.00;1.02;;;;;;;19.53;49.20;100160.25;3592254;39;20052;-69
2021/07/06 05:42:40;;;;;;;2.25;1.08;;;;;;;19.53;49.38;100171.34;3547126;40;20054;-69
2021/07/06 05:45:13;;;;;;;2.83;1.23;;;;;;;19.51;49.18;100165.16;3589687;40;20050;-69
2021/07/06 05:47:41;;;;;;;3.80;1.10;;;;;;;19.47;49.56;100158.28;3555331;40;20051;-69
2021/07/06 05:50:12;;;;;;;1.92;0.98;;;;;;;19.48;49.41;100160.00;3550833;40;20273;-69
2021/07/06 05:52:40;;;;;;;3.55;1.10;;;;;;;19.47;49.56;100165.75;3552379;40;20078;-69
2021/07/06 05:55:10;;;;;;;2.72;1.10;;;;;;;19.47;49.30;100160.22;3588827;40;20046;-69
2021/07/06 05:57:40;;;;;;;3.03;1.20;;;;;;;19.44;49.28;100152.28;3587942;40;20309;-69
2021/07/06 06:00:13;;;;;;;2.65;1.30;;;;;;;19.45;49.64;100156.78;3579279;40;20074;-69
2021/07/06 06:02:47;;;;;;;2.13;1.10;;;;;;;19.42;49.63;100146.13;3553510;40;20049;-69
2021/07/06 06:05:15;;;;;;;2.47;1.20;;;;;;;19.40;50.02;100145.47;3554049;40;20053;-69
2021/07/06 06:07:46;;;;;;;3.40;1.40;;;;;;;19.39;49.89;100146.53;3562414;40;20069;-69
2021/07/06 06:10:15;;;;;;;2.03;1.10;;;;;;;19.35;50.19;100143.28;3556201;39;20048;-68
2021/07/06 06:12:44;;;;;;;2.08;1.05;;;;;;;19.33;49.89;100152.91;3567365;40;20053;-69
2021/07/06 06:15:21;;;;;;;1.98;1.10;;;;;;;19.31;49.69;100143.94;3586179;39;20052;-69
2021/07/06 06:17:49;;;;;;;2.42;1.27;;;;;;;19.27;50.14;100128.75;3554185;39;20058;-70
2021/07/06 06:20:18;;;;;;;3.38;1.40;;;;;;;19.27;50.40;100109.34;3551233;40;20064;-70
2021/07/06 06:22:47;;;;;;;2.83;1.20;;;;;;;19.24;50.08;100105.09;3555655;40;20046;-70
2021/07/06 06:25:15;;;;;;;1.92;1.20;;;;;;;19.23;50.51;100102.53;3552684;40;20046;-70
2021/07/06 06:27:43;;;;;;;3.35;1.15;;;;;;;19.22;50.23;100085.03;3585643;40;20200;-70
2021/07/06 06:30:15;;;;;;;3.58;1.30;;;;;;;19.22;50.52;100078.63;3551019;40;20045;-70
2021/07/06 06:32:44;;;;;;;2.38;1.10;;;;;;;19.19;50.69;100077.09;3586704;40;20313;-70
2021/07/06 06:35:13;;;;;;;2.15;1.20;;;;;;;19.18;50.38;100076.25;3550626;40;20076;-69
2021/07/06 06:37:42;;;;;;;2.28;1.10;;;;;;;19.17;50.56;100077.34;3552395;40;20053;-70
2021/07/06 06:40:11;;;;;;;2.92;1.20;;;;;;;19.18;51.07;100083.75;3553005;40;20102;-70
2021/07/06 06:42:41;;;;;;;3.33;1.25;;;;;;;19.15;50.68;100071.16;3584018;40;20394;-70
2021/07/06 06:45:11;;;;;;;4.00;1.52;;;;;;;19.17;51.03;100079.25;3567242;40;20072;-69
2021/07/06 06:47:41;;;;;;;1.92;1.15;;;;;;;19.17;50.71;100065.41;3587330;40;20378;-70
2021/07/06 06:50:13;;;;;;;2.70;1.33;;;;;;;19.15;50.75;100073.91;3550882;40;20062;-70
2021/07/06 06:52:42;;;;;;;3.45;1.30;;;;;;;19.13;51.14;100077.94;3552000;40;20083;-70
2021/07/06 06:55:11;;;;;;;2.83;1.30;;;;;;;19.12;51.37;100056.81;3552944;40;20053;-69
2021/07/06 06:57:40;;;;;;;3.25;1.10;;;;;;;19.10;51.21;100040.41;3553369;40;20339;-70
2021/07/06 07:00:10;;;;;;;2.30;1.42;;;;;;;19.10;51.15;100028.47;3553714;40;20053;-71
2021/07/06 07:02:39;;;;;;;3.00;1.40;;;;;;;19.08;50.97;99986.25;3551883;39;20090;-70
2021/07/06 07:05:11;;;;;;;2.85;1.33;;;;;;;19.08;50.81;99992.66;3560950;40;20054;-71
2021/07/06 07:07:40;;;;;;;2.63;1.20;;;;;;;19.04;51.08;99974.72;3587229;40;20479;-70
2021/07/06 07:10:10;;;;;;;1.83;1.10;;;;;;;19.05;51.30;99973.66;3553565;40;20559;-71
2021/07/06 07:12:40;;;;;;;2.38;1.20;;;;;;;19.03;51.19;99956.38;3551816;40;20429;-71
2021/07/06 07:15:10;;;;;;;4.00;1.33;;;;;;;19.03;51.71;99966.59;3583985;39;20046;-70
2021/07/06 07:17:38;;;;;;;2.00;1.00;;;;;;;19.02;51.24;99987.91;3563733;40;20042;-70
2021/07/06 07:20:11;;;;;;;1.73;1.08;;;;;;;19.02;51.06;100014.81;3551839;40;20056;-70
2021/07/06 07:22:40;;;;;;;1.63;1.00;;;;;;;19.01;51.56;99969.59;3552814;40;20053;-69
2021/07/06 07:25:09;;;;;;;1.88;0.95;;;;;;;19.02;51.69;100000.94;3553676;40;20060;-70
2021/07/06 07:27:42;;;;;;;2.08;0.93;;;;;;;19.03;51.75;100020.13;3552286;39;20042;-70
2021/07/06 07:30:14;;;;;;;2.78;1.13;;;;;;;19.03;51.70;100017.34;3571927;39;20051;-70
2021/07/06 07:32:43;;;;;;;3.13;1.25;;;;;;;19.02;51.33;100015.63;3589999;40;20092;-70
2021/07/06 07:35:14;;;;;;;2.88;1.10;;;;;;;19.06;52.04;100007.78;3552619;40;20046;-70
2021/07/06 07:37:43;;;;;;;2.55;1.10;;;;;;;19.04;51.80;100002.44;3580456;40;20065;-70
2021/07/06 07:40:13;;;;;;;1.60;1.00;;;;;;;19.06;51.94;100021.63;3584944;40;20394;-69
2021/07/06 07:42:42;;;;;;;1.75;0.95;;;;;;;19.05;52.05;100029.09;3592221;40;20050;-70
2021/07/06 07:45:12;;;;;;;2.65;1.10;;;;;;;19.07;52.02;100038.06;3558167;40;20049;-70
2021/07/06 07:47:41;;;;;;;1.77;1.10;;;;;;;19.07;52.20;100042.75;3557310;39;20046;-70
2021/07/06 07:50:11;;;;;;;2.45;1.25;;;;;;;19.09;51.65;100046.16;3557495;39;20065;-70
2021/07/06 07:52:40;;;;;;;1.95;1.23;;;;;;;19.10;51.75;100045.94;3588519;40;20042;-69
2021/07/06 07:55:10;;;;;;;2.17;1.17;;;;;;;19.11;52.43;100049.56;3546347;40;20406;-70
2021/07/06 07:57:38;;;;;;;3.38;1.40;;;;;;;19.12;52.01;100065.16;3547171;40;20059;-69
2021/07/06 08:00:08;;;;;;;2.42;1.20;;;;;;;19.12;51.84;100056.81;3547598;40;20087;-69
2021/07/06 08:02:45;;;;;;;1.95;1.13;;;;;;;19.14;51.80;100049.16;3547639;40;20094;-70
2021/07/06 08:05:15;;;;;;;1.83;1.00;;;;;;;19.14;51.99;100052.78;3583126;40;20046;-69
2021/07/06 08:07:45;;;;;;;2.03;1.17;;;;;;;19.17;52.49;100051.53;3557069;40;20045;-69
2021/07/06 08:10:14;;;;;;;2.13;1.08;;;;;;;19.16;52.03;100064.53;3557323;40;20062;-70
2021/07/06 08:12:44;;;;;;;2.33;1.25;;;;;;;19.17;52.04;100046.84;3557362;40;20138;-69
2021/07/06 08:15:13;;;;;;;2.47;1.27;;;;;;;19.19;51.72;100041.06;3591077;40;20127;-69
2021/07/06 08:17:42;;;;;;;1.98;1.20;;;;;;;19.19;52.23;100049.38;3557549;40;20045;-69
2021/07/06 08:20:12;;;;;;;1.95;1.10;;;;;;;19.21;51.75;100052.81;3554077;40;20116;-69
2021/07/06 08:22:43;;;;;;;2.10;1.15;;;;;;;19.20;52.32;100056.66;3581924;40;20123;-70
2021/07/06 08:25:24;;;;;;;3.25;1.20;;;;;;;19.24;52.14;100057.09;3538439;40;20058;-69
2021/07/06 08:27:53;;;;;;;1.73;0.90;;;;;;;19.20;52.20;100054.72;3556873;40;20062;-70
2021/07/06 08:30:22;;;;;;;3.03;1.15;;;;;;;19.23;52.11;100069.25;3591389;40;20407;-69
2021/07/06 08:32:50;;;;;;;2.22;1.02;;;;;;;19.24;52.42;100082.06;3599723;39;20059;-69
2021/07/06 08:35:20;;;;;;;1.83;1.00;;;;;;;19.25;52.68;100086.53;3608543;39;20040;-69
2021/07/06 08:37:49;;;;;;;1.98;1.10;;;;;;;19.27;52.62;100078.84;3589856;40;20060;-69
2021/07/06 08:40:20;;;;;;;1.90;1.20;;;;;;;19.31;52.21;100092.09;3590454;40;20032;-69
2021/07/06 08:42:49;;;;;;;3.47;1.20;;;;;;;19.30;52.20;100090.38;3599749;39;20051;-69
2021/07/06 08:45:20;;;;;;;3.22;1.60;;;;;;;19.34;52.29;100101.94;3601491;39;20062;-69
2021/07/06 08:47:52;;;;;;;2.03;1.00;;;;;;;19.38;52.41;100098.53;3577691;39;20123;-69
2021/07/06 08:50:22;;;;;;;1.98;1.00;;;;;;;19.37;52.06;100099.56;3571104;39;20046;-69
2021/07/06 08:52:51;;;;;;;2.08;1.10;;;;;;;19.39;52.54;100110.47;3598455;39;20128;-69
2021/07/06 08:55:22;;;;;;;3.17;1.05;;;;;;;19.43;52.45;100109.00;3600042;39;20087;-69
2021/07/06 08:57:52;;;;;;;1.55;1.00;;;;;;;19.42;52.51;100110.91;3608537;39;20044;-70
2021/07/06 09:00:22;;;;;;;1.65;1.00;;;;;;;19.44;52.08;100111.53;3609727;39;20048;-70
2021/07/06 09:03:03;;;;;;;1.75;1.02;;;;;;;19.47;52.45;100104.72;3609366;39;20397;-69
2021/07/06 09:05:33;;;;;;;3.05;1.10;;;;;;;19.47;51.98;100115.81;3599727;39;20047;-70
2021/07/06 09:08:01;;;;;;;3.13;1.20;;;;;;;19.47;52.09;100110.28;3562416;39;20049;-70
2021/07/06 09:10:37;;;;;;;3.00;1.10;;;;;;;19.51;52.29;100108.84;3557008;40;20054;-69
2021/07/06 09:13:19;;;;;;;2.53;1.20;;;;;;;19.53;52.60;100120.56;3585052;40;20123;-70
2021/07/06 09:15:52;;;;;;;3.22;1.10;;;;;;;19.54;52.42;100123.13;3556739;39;20464;-70
2021/07/06 09:18:21;;;;;;;3.33;1.35;;;;;;;19.53;51.92;100129.75;3557026;40;20045;-69
2021/07/06 09:21:03;;;;;;;2.38;1.00;;;;;;;19.58;52.30;100123.59;3554793;40;20065;-69
2021/07/06 09:23:34;;;;;;;1.63;0.90;;;;;;;19.55;51.94;100121.22;3557236;39;20049;-70
2021/07/06 09:26:16;;;;;;;2.08;0.95;;;;;;;19.61;51.77;100134.25;3587805;40;20046;-69
2021/07/06 09:28:46;;;;;;;2.03;1.20;;;;;;;19.61;51.85;100130.63;3551964;40;20064;-69
2021/07/06 09:31:33;;;;;;;4.40;1.20;;;;;;;19.61;51.77;100131.47;3587665;40;20060;-69
2021/07/06 09:34:09;;;;;;;2.50;1.20;;;;;;;19.63;51.66;100142.38;3590992;40;20068;-69
2021/07/06 09:36:43;;;;;;;2.58;1.20;;;;;;;19.65;51.89;100143.88;3555845;39;20403;-69
2021/07/06 09:39:22;;;;;;;3.65;1.17;;;;;;;19.69;51.69;100145.16;3586009;40;20057;-69
2021/07/06 09:41:57;;;;;;;1.80;1.00;;;;;;;19.71;51.70;100156.91;3547394;40;20050;-68
2021/07/06 09:44:29;;;;;;;2.63;0.98;;;;;;;19.71;52.07;100156.91;3555145;40;20358;-69
2021/07/06 09:47:00;;;;;;;1.92;1.05;;;;;;;19.73;51.45;100163.13;3556133;40;20061;-69
2021/07/06 09:49:31;;;;;;;1.88;0.82;;;;;;;19.75;51.61;100151.81;3589867;40;20060;-69
2021/07/06 09:52:10;;;;;;;1.50;0.80;;;;;;;19.80;51.79;100158.44;3555150;40;20046;-69
2021/07/06 09:54:42;;;;;;;1.75;0.93;;;;;;;19.80;51.73;100169.53;3568878;40;20053;-69
2021/07/06 09:57:37;;;;;;;2.72;0.98;;;;;;;19.81;51.82;100164.84;3585424;40;20321;-69
2021/07/06 10:00:08;;;;;;;1.60;0.90;;;;;;;19.85;51.71;100169.75;3586157;39;20049;-68
2021/07/06 10:02:41;;;;;;;1.83;0.82;;;;;;;19.87;51.57;100180.66;3554857;40;20390;-69
2021/07/06 10:05:14;;;;;;;;;;;;;;;19.62;52.20;100177.59;3584015;40;20102;-68
2021/07/06 10:07:42;;;;;;;1.30;0.90;;;;;;;19.88;51.49;100177.66;3573347;40;19941;-69
2021/07/06 10:10:13;;;;;;;1.25;0.77;;;;;;;19.95;50.86;100189.63;3549105;40;20085;-69
2021/07/06 10:12:45;;;;;;;1.45;0.93;;;;;;;20.00;50.82;100188.16;3586225;40;20057;-69
2021/07/06 10:15:16;;;;;;;1.02;0.60;;;;;;;20.00;50.53;100186.25;3549543;40;20429;-69
2021/07/06 10:17:47;;;;;;;;;;;;;;;19.72;51.10;100186.38;3588897;40;20041;-69
2021/07/06 10:20:20;;;;;;;1.48;0.60;;;;;;;20.01;51.25;100192.66;3581704;40;20192;-69
2021/07/06 10:22:50;;;;;;;1.52;0.80;;;;;;;20.08;51.05;100197.16;3586583;40;20049;-67
2021/07/06 10:25:25;;;;;;;1.42;0.60;;;;;;;20.14;50.13;100196.31;3554385;40;20398;-68
2021/07/06 10:27:58;;;;;;;1.92;0.90;;;;;;;20.19;50.65;100190.97;3550808;40;20045;-67
2021/07/06 10:30:48;;;;;;;1.63;0.60;;;;;;;20.26;49.64;100216.84;3553213;40;20085;-68
2021/07/06 10:33:30;;;;;;;0.52;0.40;;;;;;;20.36;49.74;100212.81;3562048;40;20061;-68
2021/07/06 10:39:47;;;;;;;3.13;0.77;;;;;;;20.53;48.73;100214.09;3577403;40;20534;-67
2021/07/06 10:42:18;;;;;;;0.68;0.50;;;;;;;20.60;49.27;100207.47;3586180;40;20048;-67
2021/07/06 10:44:49;;;;;;;1.15;0.57;;;;;;;20.74;48.56;100216.69;3569592;40;20414;-67
2021/07/06 10:47:38;;;;;;;0.90;0.50;;;;;;;20.82;47.20;100215.59;3570849;40;20056;-68
2021/07/06 10:50:51;;;;;;;0.82;0.60;;;;;;;20.91;47.29;100240.19;3553569;40;20126;-68
2021/07/06 10:53:22;;;;;;;1.30;0.65;;;;;;;20.96;47.81;100229.31;3580491;40;20046;-68
2021/07/06 10:56:07;;;;;;;1.25;0.70;;;;;;;21.05;46.18;100235.50;3596183;39;20416;-68
2021/07/06 10:58:51;;;;;;;1.10;0.70;;;;;;;21.10;46.02;100226.50;3553587;40;20057;-68
2021/07/06 11:02:02;;;;;;;1.15;0.60;;;;;;;21.10;45.32;100223.72;3577871;40;20058;-68
2021/07/06 11:05:04;;;;;;;1.15;0.60;;;;;;;21.07;45.32;100222.25;3580855;40;20109;-68
2021/07/06 11:07:51;;;;;;;0.40;0.40;;;;;;;21.16;45.12;100222.88;3558210;40;20080;-68
2021/07/06 11:10:50;;;;;;;1.45;0.40;;;;;;;21.15;44.38;100216.44;3554489;40;20352;-68
2021/07/06 11:13:21;;;;;;;0.68;0.50;;;;;;;21.21;45.10;100218.34;3548654;39;20053;-67
2021/07/06 11:15:50;;;;;;;0.60;0.52;;;;;;;21.27;44.89;100222.19;3592424;39;20088;-68
2021/07/06 11:18:32;;;;;;;1.13;0.60;;;;;;;21.32;44.90;100220.47;3605169;39;20040;-69
2021/07/06 11:21:03;;;;;;;0.50;0.40;;;;;;;21.37;44.66;100223.44;3608702;39;20127;-69
2021/07/06 11:23:34;;;;;;;1.52;0.75;;;;;;;21.44;44.42;100235.41;3604493;39;20400;-69
2021/07/06 11:26:05;;;;;;;1.33;0.68;;;;;;;21.51;43.47;100238.16;3596301;39;20114;-68
2021/07/06 11:28:54;;;;;;;1.55;0.60;;;;;;;21.55;43.25;100242.22;3606077;39;20054;-70
2021/07/06 11:31:24;;;;;;;1.95;0.70;;;;;;;21.53;43.13;100236.00;3605429;39;20044;-71
2021/07/06 11:33:53;;;;;;;0.40;0.40;;;;;;;21.56;43.27;100230.06;3605874;39;20052;-69
2021/07/06 11:36:25;;;;;;;0.73;0.52;;;;;;;21.60;42.41;100220.19;3604930;39;20055;-69
2021/07/06 11:38:57;;;;;;;1.40;0.40;;;;;;;21.58;42.86;100219.53;3586111;39;20061;-69
2021/07/06 11:41:26;;;;;;;0.63;0.50;;;;;;;21.60;42.32;100217.41;3596842;39;20082;-69
2021/07/06 11:43:56;;;;;;;0.80;0.57;;;;;;;21.61;41.97;100204.34;3594029;39;20040;-69
2021/07/06 11:46:26;;;;;;;1.77;0.65;;;;;;;21.62;42.06;100200.47;3602954;39;20128;-69
2021/07/06 11:49:01;;;;;;;1.95;0.52;;;;;;;21.63;41.86;100204.97;3600620;39;20074;-69